Time;durP1;ratioP1;P1;durP2;ratioP2;P2;SDS_P1;SDS_P2;PMS_P1;PMS_P2;Temp;Humidity;BMP_temperature;BMP_pressure;BME280_temperature;BME280_humidity;BME280_pressure;Samples;Min_cycle;Max_cycle;Signal;HPM_P1;HPM_P2
2023/05/12 00:00:50;;;;;;;;;;;12.90;99.90;;;;;;5052695;28;19932;-68
2023/05/12 00:03:19;;;;;;;;;;;12.90;99.90;;;;;;5046960;28;19936;-68
2023/05/12 00:05:45;;;;;;;;;;;12.90;99.90;;;;;;5063149;28;19983;-68
2023/05/12 00:08:12;;;;;;;;;;;12.90;99.90;;;;;;5043112;28;19925;-68
2023/05/12 00:10:39;;;;;;;;;;;12.80;99.90;;;;;;5038549;28;19974;-68
2023/05/12 00:13:05;;;;;;;;;;;12.90;99.90;;;;;;5067573;28;20304;-68
2023/05/12 00:15:32;;;;;;;;;;;12.80;99.90;;;;;;5055729;28;19932;-68
2023/05/12 00:17:59;;;;;;;;;;;12.90;99.90;;;;;;5056891;28;19925;-68
2023/05/12 00:20:27;;;;;;;;;;;12.90;99.90;;;;;;5044711;28;19932;-68
2023/05/12 00:22:54;;;;;;;;;;;12.90;99.90;;;;;;5060014;28;19925;-68
2023/05/12 00:25:21;;;;;;;;;;;12.90;99.90;;;;;;5048130;28;20422;-68
2023/05/12 00:27:47;;;;;;;;;;;12.90;99.90;;;;;;5048555;28;20343;-68
2023/05/12 00:30:15;;;;;;;;;;;;;;;;;;5041186;28;19940;-68
2023/05/12 00:32:42;;;;;;;;;;;;;;;;;;5048232;28;19925;-68
2023/05/12 00:35:09;;;;;;;;;;;;;;;;;;5072858;23;19928;-66
2023/05/12 00:37:36;;;;;;;;;;;;;;;;;;5040927;28;20014;-66
2023/05/12 00:40:03;;;;;;;;;;;;;;;;;;5042364;28;19925;-66
2023/05/12 00:42:33;;;;;;;;;;;12.90;99.90;;;;;;5048293;28;20024;-66
2023/05/12 00:45:00;;;;;;;;;;;;;;;;;;5036795;28;20358;-67
2023/05/12 00:47:27;;;;;;;;;;;12.90;99.90;;;;;;5047956;28;19924;-66
2023/05/12 00:49:53;;;;;;;;;;;12.90;99.90;;;;;;5043235;28;19975;-66
2023/05/12 00:52:20;;;;;;;;;;;12.90;99.90;;;;;;5043362;28;20442;-66
2023/05/12 00:54:48;;;;;;;;;;;12.90;99.90;;;;;;5051106;28;19925;-66
2023/05/12 00:57:14;;;;;;;;;;;12.90;99.90;;;;;;5046366;28;20400;-67
2023/05/12 00:59:42;;;;;;;;;;;12.90;99.90;;;;;;5045384;28;20415;-66
2023/05/12 01:02:09;;;;;;;;;;;12.90;99.90;;;;;;5044970;28;20028;-67
2023/05/12 01:04:38;;;;;;;;;;;12.90;99.90;;;;;;5041548;28;19931;-67
2023/05/12 01:07:10;;;;;;;;;;;12.90;99.90;;;;;;5042288;28;20015;-67
2023/05/12 01:09:38;;;;;;;;;;;13.00;99.90;;;;;;5038470;28;20334;-66
2023/05/12 01:12:05;;;;;;;;;;;13.00;99.90;;;;;;5044503;28;19967;-67
2023/05/12 01:14:33;;;;;;;;;;;13.00;99.90;;;;;;5040696;28;20454;-67
2023/05/12 01:17:03;;;;;;;;;;;13.00;99.90;;;;;;5037238;28;20474;-66
2023/05/12 01:19:34;;;;;;;;;;;13.00;99.90;;;;;;5045188;28;19931;-67
2023/05/12 01:22:01;;;;;;;;;;;12.90;99.90;;;;;;5038722;28;20060;-67
2023/05/12 01:24:30;;;;;;;;;;;13.00;99.90;;;;;;5037932;28;19928;-66
2023/05/12 01:26:59;;;;;;;;;;;12.90;99.90;;;;;;5040081;28;19925;-67
2023/05/12 01:29:25;;;;;;;;;;;12.90;99.90;;;;;;5044320;28;19951;-67
2023/05/12 01:31:53;;;;;;;;;;;13.00;99.90;;;;;;5041311;28;19925;-66
2023/05/12 01:34:20;;;;;;;;;;;12.90;99.90;;;;;;5045134;28;19975;-66
2023/05/12 01:36:50;;;;;;;;;;;12.90;99.90;;;;;;5035863;28;19925;-65
2023/05/12 01:39:17;;;;;;;;;;;12.90;99.90;;;;;;5037408;28;20388;-67
2023/05/12 01:41:44;;;;;;;;;;;12.90;99.90;;;;;;5040610;28;19925;-66
2023/05/12 01:44:12;;;;;;;;;;;13.00;99.90;;;;;;5044767;28;19965;-66
2023/05/12 01:46:39;;;;;;;;;;;12.90;99.90;;;;;;5062396;28;20384;-64
2023/05/12 01:49:06;;;;;;;;;;;12.90;99.90;;;;;;5048227;28;19929;-64
2023/05/12 01:51:33;;;;;;;;;;;12.90;99.90;;;;;;5034319;28;19971;-67
2023/05/12 01:54:00;;;;;;;;;;;12.90;99.90;;;;;;5039345;28;19957;-66
2023/05/12 01:56:31;;;;;;;;;;;12.90;99.90;;;;;;5036964;28;19926;-66
2023/05/12 01:58:58;;;;;;;;;;;12.90;99.90;;;;;;5045659;28;19925;-66
2023/05/12 02:01:27;;;;;;;;;;;12.90;99.90;;;;;;5043786;28;19996;-66
2023/05/12 02:03:56;;;;;;;;;;;12.90;99.90;;;;;;5056255;28;19928;-66
2023/05/12 02:06:24;;;;;;;;;;;12.90;99.90;;;;;;5046202;28;20453;-66
2023/05/12 02:08:52;;;;;;;;;;;12.90;99.90;;;;;;5042590;28;19964;-66
2023/05/12 02:11:19;;;;;;;;;;;12.90;99.90;;;;;;5043303;28;19964;-66
2023/05/12 02:13:46;;;;;;;;;;;12.90;99.90;;;;;;5047476;28;19929;-66
2023/05/12 02:16:14;;;;;;;;;;;12.80;99.90;;;;;;5036533;28;20083;-66
2023/05/12 02:18:43;;;;;;;;;;;12.90;99.90;;;;;;5047921;28;19925;-67
2023/05/12 02:21:10;;;;;;;;;;;12.80;99.90;;;;;;5042293;28;19925;-66
2023/05/12 02:23:37;;;;;;;;;;;12.80;99.90;;;;;;5042340;28;19929;-67
2023/05/12 02:26:04;;;;;;;;;;;12.80;99.90;;;;;;5038478;28;19932;-66
2023/05/12 02:28:30;;;;;;;;;;;12.80;99.90;;;;;;5037050;28;19932;-66
2023/05/12 02:30:58;;;;;;;;;;;;;;;;;;5042678;28;19925;-66
2023/05/12 02:33:25;;;;;;;;;;;12.80;99.90;;;;;;5053119;28;19932;-65
2023/05/12 02:35:54;;;;;;;;;;;12.70;99.90;;;;;;5043005;28;19925;-66
2023/05/12 02:38:21;;;;;;;;;;;12.70;99.90;;;;;;5059127;28;20416;-67
2023/05/12 02:40:48;;;;;;;;;;;12.70;99.90;;;;;;5040534;28;20372;-66
2023/05/12 02:43:15;;;;;;;;;;;12.70;99.90;;;;;;5044417;28;19933;-66
2023/05/12 02:45:43;;;;;;;;;;;12.70;99.90;;;;;;5034080;28;19929;-65
2023/05/12 02:48:10;;;;;;;;;;;12.70;99.90;;;;;;5045912;28;19925;-67
2023/05/12 02:50:36;;;;;;;;;;;12.70;99.90;;;;;;5044593;28;19929;-66
2023/05/12 02:53:05;;;;;;;;;;;12.70;99.90;;;;;;5043694;28;19999;-66
2023/05/12 02:55:32;;;;;;;;;;;12.70;99.90;;;;;;5045873;28;19929;-66
2023/05/12 02:57:59;;;;;;;;;;;12.70;99.90;;;;;;5042319;28;19964;-66
2023/05/12 03:00:26;;;;;;;;;;;12.70;99.90;;;;;;5050790;28;19932;-66
2023/05/12 03:02:53;;;;;;;;;;;12.60;99.90;;;;;;5040522;28;19931;-66
2023/05/12 03:05:20;;;;;;;;;;;12.60;99.90;;;;;;5048172;28;19928;-66
2023/05/12 03:07:48;;;;;;;;;;;12.60;99.90;;;;;;5042509;28;19925;-66
2023/05/12 03:10:16;;;;;;;;;;;12.60;99.90;;;;;;5045861;28;20289;-66
2023/05/12 03:12:43;;;;;;;;;;;12.50;99.90;;;;;;5049139;28;19932;-67
2023/05/12 03:15:10;;;;;;;;;;;12.50;99.90;;;;;;5048318;28;19925;-66
2023/05/12 03:17:37;;;;;;;;;;;12.50;99.90;;;;;;5043568;28;19925;-67
2023/05/12 03:20:05;;;;;;;;;;;12.60;99.90;;;;;;5041814;28;19956;-66
2023/05/12 03:22:31;;;;;;;;;;;12.50;99.90;;;;;;5048203;28;19986;-67
2023/05/12 03:24:58;;;;;;;;;;;12.50;99.90;;;;;;5039914;28;19979;-66
2023/05/12 03:27:27;;;;;;;;;;;12.50;99.90;;;;;;5044044;28;19929;-66
2023/05/12 03:29:54;;;;;;;;;;;12.60;99.90;;;;;;5042708;28;20393;-67
2023/05/12 03:32:21;;;;;;;;;;;12.60;99.90;;;;;;5046240;28;20277;-66
2023/05/12 03:34:48;;;;;;;;;;;12.60;99.90;;;;;;5042081;28;20300;-66
2023/05/12 03:37:15;;;;;;;;;;;12.60;99.90;;;;;;5042195;28;20284;-66
2023/05/12 03:39:42;;;;;;;;;;;12.60;99.90;;;;;;5049993;28;19975;-66
2023/05/12 03:42:09;;;;;;;;;;;12.60;99.90;;;;;;5047229;28;19925;-66
2023/05/12 03:44:38;;;;;;;;;;;12.60;99.90;;;;;;5038439;28;20273;-66
2023/05/12 03:47:05;;;;;;;;;;;12.70;99.90;;;;;;5045895;28;19932;-65
2023/05/12 03:49:32;;;;;;;;;;;12.60;99.90;;;;;;5047720;28;19939;-66
2023/05/12 03:51:58;;;;;;;;;;;12.60;99.90;;;;;;5038853;28;19929;-66
2023/05/12 03:54:25;;;;;;;;;;;12.60;99.90;;;;;;5038972;28;20043;-67
2023/05/12 03:56:52;;;;;;;;;;;12.60;99.90;;;;;;5045475;28;19936;-65
2023/05/12 03:59:19;;;;;;;;;;;12.60;99.90;;;;;;5038516;28;20354;-67
2023/05/12 04:01:47;;;;;;;;;;;12.60;99.90;;;;;;5050141;28;20368;-65
2023/05/12 04:04:14;;;;;;;;;;;12.50;99.90;;;;;;5048466;28;20328;-66
2023/05/12 04:06:41;;;;;;;;;;;12.60;99.90;;;;;;5041101;28;20438;-66
2023/05/12 04:09:07;;;;;;;;;;;12.60;99.90;;;;;;5042373;28;19928;-66
2023/05/12 04:11:36;;;;;;;;;;;12.60;99.90;;;;;;5042122;28;19932;-66
2023/05/12 04:14:03;;;;;;;;;;;12.60;99.90;;;;;;5041585;28;19932;-66
2023/05/12 04:16:30;;;;;;;;;;;12.60;99.90;;;;;;5048860;28;19925;-66
2023/05/12 04:19:00;;;;;;;;;;;12.60;99.90;;;;;;5051738;28;19982;-66
2023/05/12 04:21:27;;;;;;;;;;;;;;;;;;5044385;28;19932;-66
2023/05/12 04:23:53;;;;;;;;;;;12.60;99.90;;;;;;5067804;28;19925;-67
2023/05/12 04:26:22;;;;;;;;;;;12.70;99.90;;;;;;5046366;28;20031;-67
2023/05/12 04:28:48;;;;;;;;;;;12.80;99.90;;;;;;5049737;28;19928;-66
2023/05/12 04:31:15;;;;;;;;;;;12.80;99.90;;;;;;5043996;28;19925;-66
2023/05/12 04:33:42;;;;;;;;;;;12.80;99.90;;;;;;5043886;28;19936;-67
2023/05/12 04:36:12;;;;;;;;;;;12.80;99.90;;;;;;5047390;28;19931;-69
2023/05/12 04:38:40;;;;;;;;;;;12.90;99.90;;;;;;5038769;28;19932;-66
2023/05/12 04:41:08;;;;;;;;;;;12.90;99.90;;;;;;5044560;28;19928;-66
2023/05/12 04:43:35;;;;;;;;;;;12.90;99.90;;;;;;5047840;28;20351;-66
2023/05/12 04:46:02;;;;;;;;;;;12.90;99.90;;;;;;5041199;28;20392;-68
2023/05/12 04:48:29;;;;;;;;;;;12.90;99.90;;;;;;5049765;28;19932;-66
2023/05/12 04:50:58;;;;;;;;;;;13.00;99.90;;;;;;5044934;28;19925;-67
2023/05/12 04:53:26;;;;;;;;;;;13.00;99.90;;;;;;5044351;28;19924;-66
2023/05/12 04:55:55;;;;;;;;;;;13.00;99.90;;;;;;5046891;28;19925;-70
2023/05/12 04:58:22;;;;;;;;;;;13.00;99.90;;;;;;5047550;28;20402;-66
2023/05/12 05:00:50;;;;;;;;;;;13.00;99.90;;;;;;5044008;28;20041;-67
2023/05/12 05:03:17;;;;;;;;;;;13.00;99.90;;;;;;5041763;28;19928;-68
2023/05/12 05:05:44;;;;;;;;;;;13.00;99.90;;;;;;5047091;28;19936;-67
2023/05/12 05:08:12;;;;;;;;;;;13.00;99.90;;;;;;5042990;28;19924;-67
2023/05/12 05:10:40;;;;;;;;;;;13.00;99.90;;;;;;5042690;28;19925;-67
2023/05/12 05:13:07;;;;;;;;;;;13.10;99.90;;;;;;5043400;28;19925;-67
2023/05/12 05:15:34;;;;;;;;;;;13.10;99.90;;;;;;5037074;28;19932;-70
2023/05/12 05:18:00;;;;;;;;;;;13.10;99.90;;;;;;5041939;28;20395;-67
2023/05/12 05:20:28;;;;;;;;;;;13.10;99.90;;;;;;5041868;28;19933;-67
2023/05/12 05:22:55;;;;;;;;;;;13.10;99.90;;;;;;5042610;28;19924;-67
2023/05/12 05:25:22;;;;;;;;;;;13.10;99.90;;;;;;5038567;28;19925;-66
2023/05/12 05:27:50;;;;;;;;;;;13.10;99.90;;;;;;5042384;28;19925;-67
2023/05/12 05:30:17;;;;;;;;;;;13.20;99.90;;;;;;5043486;28;19925;-67
2023/05/12 05:32:45;;;;;;;;;;;13.20;99.90;;;;;;5035565;28;20015;-67
2023/05/12 05:35:12;;;;;;;;;;;13.20;99.90;;;;;;5047923;28;19925;-67
2023/05/12 05:37:44;;;;;;;;;;;13.10;99.90;;;;;;5034596;28;20426;-66
2023/05/12 05:40:11;;;;;;;;;;;13.10;99.90;;;;;;5042477;28;19925;-69
2023/05/12 05:42:38;;;;;;;;;;;13.10;99.90;;;;;;5057920;28;19933;-67
2023/05/12 05:45:07;;;;;;;;;;;13.20;99.90;;;;;;5047984;28;20422;-66
2023/05/12 05:47:36;;;;;;;;;;;13.30;99.90;;;;;;5042110;28;19925;-63
2023/05/12 05:50:03;;;;;;;;;;;13.30;99.90;;;;;;5047551;28;19947;-67
2023/05/12 05:52:31;;;;;;;;;;;13.40;99.90;;;;;;5045080;28;20423;-67
2023/05/12 05:54:58;;;;;;;;;;;13.40;99.90;;;;;;5034700;28;20395;-67
2023/05/12 05:57:27;;;;;;;;;;;13.50;99.90;;;;;;5045321;28;20031;-67
2023/05/12 05:59:56;;;;;;;;;;;13.60;99.90;;;;;;5036744;28;19929;-69
2023/05/12 06:02:24;;;;;;;;;;;13.50;99.90;;;;;;5043910;28;19925;-67
2023/05/12 06:04:51;;;;;;;;;;;13.50;99.90;;;;;;5042531;28;19932;-67
2023/05/12 06:07:18;;;;;;;;;;;13.60;99.90;;;;;;5044831;28;19935;-69
2023/05/12 06:09:45;;;;;;;;;;;13.50;99.90;;;;;;5047723;28;19929;-67
2023/05/12 06:12:12;;;;;;;;;;;13.60;99.90;;;;;;5043133;28;19924;-67
2023/05/12 06:14:38;;;;;;;;;;;13.60;99.90;;;;;;5041408;28;19925;-67
2023/05/12 06:17:05;;;;;;;;;;;13.60;99.90;;;;;;5043642;28;19932;-66
2023/05/12 06:19:34;;;;;;;;;;;13.60;99.90;;;;;;5047914;28;20328;-66
2023/05/12 06:22:00;;;;;;;;;;;13.70;99.90;;;;;;5041355;28;19925;-67
2023/05/12 06:24:27;;;;;;;;;;;13.70;99.90;;;;;;5037943;28;19925;-67
2023/05/12 06:26:54;;;;;;;;;;;13.80;99.90;;;;;;5037231;28;19925;-67
2023/05/12 06:29:21;;;;;;;;;;;13.80;99.90;;;;;;5036121;28;19952;-70
2023/05/12 06:31:48;;;;;;;;;;;13.80;99.90;;;;;;5038037;28;19936;-67
2023/05/12 06:34:15;;;;;;;;;;;13.80;99.90;;;;;;5037467;28;19925;-67
2023/05/12 06:36:44;;;;;;;;;;;13.80;99.90;;;;;;5036883;28;19925;-67
2023/05/12 06:39:11;;;;;;;;;;;13.80;99.90;;;;;;5040441;28;19936;-67
2023/05/12 06:41:38;;;;;;;;;;;13.80;99.90;;;;;;5041528;28;19929;-67
2023/05/12 06:44:05;;;;;;;;;;;13.90;99.90;;;;;;5040749;28;20039;-68
2023/05/12 06:46:32;;;;;;;;;;;13.90;99.90;;;;;;5040065;28;19939;-70
2023/05/12 06:49:00;;;;;;;;;;;13.90;99.90;;;;;;5047028;28;19932;-66
2023/05/12 06:51:27;;;;;;;;;;;13.90;99.90;;;;;;5040473;28;19924;-67
2023/05/12 06:53:55;;;;;;;;;;;14.00;99.90;;;;;;5035892;28;20388;-66
2023/05/12 06:56:23;;;;;;;;;;;14.00;99.90;;;;;;5036356;28;19925;-67
2023/05/12 06:58:53;;;;;;;;;;;14.10;99.90;;;;;;5043156;28;20020;-67
2023/05/12 07:01:19;;;;;;;;;;;14.20;99.90;;;;;;5041150;28;19968;-66
2023/05/12 07:03:46;;;;;;;;;;;14.30;99.90;;;;;;5036589;28;19983;-67
2023/05/12 07:06:13;;;;;;;;;;;14.30;99.90;;;;;;5033531;28;19941;-67
2023/05/12 07:08:40;;;;;;;;;;;14.40;99.90;;;;;;5043754;28;19965;-67
2023/05/12 07:11:08;;;;;;;;;;;14.50;99.90;;;;;;5034631;28;20032;-68
2023/05/12 07:13:35;;;;;;;;;;;14.60;99.90;;;;;;5045279;28;19925;-68
2023/05/12 07:16:02;;;;;;;;;;;14.50;99.90;;;;;;5040571;28;19925;-66
2023/05/12 07:18:28;;;;;;;;;;;14.40;99.90;;;;;;5043183;28;19935;-67
2023/05/12 07:20:55;;;;;;;;;;;14.30;99.90;;;;;;5049181;28;19936;-68
2023/05/12 07:23:22;;;;;;;;;;;14.30;99.90;;;;;;5047271;28;19924;-67
2023/05/12 07:25:49;;;;;;;;;;;14.30;99.90;;;;;;5038301;28;20361;-67
2023/05/12 07:28:17;;;;;;;;;;;14.40;99.90;;;;;;5040228;28;19925;-67
2023/05/12 07:30:44;;;;;;;;;;;14.60;99.90;;;;;;5029041;28;19983;-67
2023/05/12 07:33:11;;;;;;;;;;;14.70;99.90;;;;;;5029075;28;19925;-67
2023/05/12 07:35:37;;;;;;;;;;;14.70;99.90;;;;;;5035249;28;19924;-67
2023/05/12 07:38:05;;;;;;;;;;;14.70;99.90;;;;;;5048179;28;19982;-68
2023/05/12 07:40:31;;;;;;;;;;;14.70;99.90;;;;;;5052059;28;19927;-67
2023/05/12 07:42:58;;;;;;;;;;;14.60;99.90;;;;;;5052375;28;19936;-67
2023/05/12 07:45:26;;;;;;;;;;;14.50;99.90;;;;;;5034854;28;19925;-67
2023/05/12 07:47:53;;;;;;;;;;;14.50;99.90;;;;;;5047237;28;19929;-67
2023/05/12 07:50:20;;;;;;;;;;;14.50;99.90;;;;;;5043516;28;19947;-66
2023/05/12 07:52:48;;;;;;;;;;;14.60;99.90;;;;;;5044709;28;19948;-69
2023/05/12 07:55:15;;;;;;;;;;;14.70;99.90;;;;;;5050619;28;19956;-67
2023/05/12 07:57:42;;;;;;;;;;;14.90;99.90;;;;;;5033973;28;19925;-66
2023/05/12 08:00:09;;;;;;;;;;;14.90;99.90;;;;;;5045540;28;19925;-67
2023/05/12 08:02:41;;;;;;;;;;;15.10;99.90;;;;;;5038126;28;20027;-67
2023/05/12 08:05:09;;;;;;;;;;;15.10;99.90;;;;;;5040481;28;19948;-67
2023/05/12 08:07:36;;;;;;;;;;;15.20;99.90;;;;;;5043726;28;19947;-67
2023/05/12 08:10:03;;;;;;;;;;;15.30;99.90;;;;;;5036584;28;19925;-67
2023/05/12 08:12:30;;;;;;;;;;;15.30;99.90;;;;;;5035541;28;20060;-65
2023/05/12 08:14:57;;;;;;;;;;;15.40;99.90;;;;;;5039117;28;19970;-66
2023/05/12 08:17:24;;;;;;;;;;;15.40;99.90;;;;;;5046202;28;19925;-69
2023/05/12 08:19:52;;;;;;;;;;;15.60;99.90;;;;;;5043827;28;19925;-67
2023/05/12 08:22:19;;;;;;;;;;;15.70;99.90;;;;;;5050900;28;19939;-67
2023/05/12 08:24:46;;;;;;;;;;;15.80;99.90;;;;;;5042918;28;19932;-66
2023/05/12 08:27:12;;;;;;;;;;;16.10;99.90;;;;;;5039967;28;19933;-66
2023/05/12 08:29:39;;;;;;;;;;;16.10;99.90;;;;;;5046451;28;19925;-67
2023/05/12 08:32:06;;;;;;;;;;;16.10;99.90;;;;;;5045219;28;19925;-67
2023/05/12 08:34:33;;;;;;;;;;;16.30;99.90;;;;;;5056935;28;19930;-69
2023/05/12 08:37:01;;;;;;;;;;;16.30;99.90;;;;;;5041431;28;20355;-67
2023/05/12 08:39:29;;;;;;;;;;;16.20;99.90;;;;;;5042727;28;19924;-67
2023/05/12 08:42:01;;;;;;;;;;;16.30;99.90;;;;;;5047292;28;19925;-66
2023/05/12 08:44:28;;;;;;;;;;;16.30;99.90;;;;;;5041348;28;19960;-69
2023/05/12 08:46:56;;;;;;;;;;;16.30;99.90;;;;;;5036757;28;19936;-66
2023/05/12 08:49:24;;;;;;;;;;;16.50;99.90;;;;;;5047663;28;19963;-67
2023/05/12 08:51:53;;;;;;;;;;;16.70;99.90;;;;;;5040698;28;19925;-67
2023/05/12 08:54:22;;;;;;;;;;;16.80;99.90;;;;;;5047667;28;19936;-68
2023/05/12 08:56:51;;;;;;;;;;;17.00;99.90;;;;;;5045688;28;19932;-67
2023/05/12 08:59:19;;;;;;;;;;;17.20;99.90;;;;;;5041000;28;19929;-68
2023/05/12 09:01:46;;;;;;;;;;;17.30;99.90;;;;;;5043517;28;20312;-67
2023/05/12 09:04:14;;;;;;;;;;;17.40;99.90;;;;;;5042555;28;19929;-67
2023/05/12 09:06:41;;;;;;;;;;;17.60;99.90;;;;;;5041995;28;19978;-67
2023/05/12 09:09:07;;;;;;;;;;;17.90;99.90;;;;;;5046685;28;19929;-67
2023/05/12 09:11:36;;;;;;;;;;;18.10;99.90;;;;;;5066471;28;19925;-68
2023/05/12 09:14:05;;;;;;;;;;;18.00;99.90;;;;;;5048488;28;20427;-68
2023/05/12 09:16:33;;;;;;;;;;;17.80;99.90;;;;;;5039540;28;19936;-67
2023/05/12 09:19:00;;;;;;;;;;;17.70;99.90;;;;;;5044500;28;19936;-67
2023/05/12 09:21:27;;;;;;;;;;;17.80;99.90;;;;;;5041067;28;19928;-67
2023/05/12 09:23:55;;;;;;;;;;;17.90;99.90;;;;;;5038208;28;19928;-67
2023/05/12 09:26:22;;;;;;;;;;;18.00;99.90;;;;;;5066589;28;19925;-66
2023/05/12 09:28:52;;;;;;;;;;;18.10;99.90;;;;;;5040343;28;19939;-68
2023/05/12 09:31:21;;;;;;;;;;;18.20;99.90;;;;;;5048356;28;20388;-67
2023/05/12 09:33:48;;;;;;;;;;;18.00;99.90;;;;;;5035340;28;19947;-68
2023/05/12 09:36:16;;;;;;;;;;;18.00;99.90;;;;;;5046408;28;19929;-68
2023/05/12 09:38:43;;;;;;;;;;;18.20;99.90;;;;;;5032170;28;19932;-67
2023/05/12 09:41:10;;;;;;;;;;;18.20;99.90;;;;;;5039729;28;19939;-67
2023/05/12 09:43:37;;;;;;;;;;;18.30;99.90;;;;;;5063536;28;19925;-67
2023/05/12 09:46:06;;;;;;;;;;;18.60;99.90;;;;;;5041647;28;19929;-68
2023/05/12 09:48:33;;;;;;;;;;;18.60;99.90;;;;;;5046664;28;19933;-68
2023/05/12 09:50:59;;;;;;;;;;;18.70;99.90;;;;;;5039442;28;19999;-67
2023/05/12 09:53:26;;;;;;;;;;;18.70;99.90;;;;;;5041611;28;19925;-69
2023/05/12 09:55:53;;;;;;;;;;;18.90;99.90;;;;;;5037739;28;20388;-68
2023/05/12 09:58:20;;;;;;;;;;;18.80;99.90;;;;;;5042268;28;19933;-67
2023/05/12 10:00:47;;;;;;;;;;;18.80;99.90;;;;;;5043277;28;19931;-67
2023/05/12 10:03:16;;;;;;;;;;;19.00;99.90;;;;;;5036957;28;19932;-68
2023/05/12 10:05:46;;;;;;;;;;;19.10;99.90;;;;;;5041168;28;19929;-69
2023/05/12 10:08:16;;;;;;;;;;;18.90;99.90;;;;;;5045190;28;19932;-67
2023/05/12 10:10:43;;;;;;;;;;;18.90;99.90;;;;;;5049518;28;19929;-66
2023/05/12 10:13:13;;;;;;;;;;;19.10;99.90;;;;;;5047116;28;19928;-70
2023/05/12 10:15:40;;;;;;;;;;;19.10;99.90;;;;;;5042432;28;19968;-68
2023/05/12 10:18:07;;;;;;;;;;;19.10;99.90;;;;;;5040824;28;19925;-68
2023/05/12 10:20:36;;;;;;;;;;;19.30;99.90;;;;;;5039533;28;19933;-67
2023/05/12 10:23:04;;;;;;;;;;;19.40;99.90;;;;;;5047621;28;19925;-69
2023/05/12 10:25:31;;;;;;;;;;;19.70;99.90;;;;;;5048647;28;19929;-67
2023/05/12 10:27:59;;;;;;;;;;;19.60;99.90;;;;;;5045856;28;19974;-68
2023/05/12 10:30:26;;;;;;;;;;;19.50;99.90;;;;;;5042163;28;19940;-68
2023/05/12 10:32:53;;;;;;;;;;;19.50;99.90;;;;;;5060666;28;19932;-68
2023/05/12 10:35:20;;;;;;;;;;;19.50;99.90;;;;;;5040863;28;19933;-67
2023/05/12 10:37:49;;;;;;;;;;;19.80;99.90;;;;;;5047243;28;20296;-67
2023/05/12 10:40:23;;;;;;;;;;;19.80;99.90;;;;;;5039939;28;20274;-67
2023/05/12 10:42:50;;;;;;;;;;;19.90;99.90;;;;;;5046909;28;19925;-69
2023/05/12 10:45:19;;;;;;;;;;;20.20;99.90;;;;;;5035949;28;20335;-68
2023/05/12 10:47:46;;;;;;;;;;;20.30;99.90;;;;;;5042700;28;19925;-67
2023/05/12 10:50:13;;;;;;;;;;;20.50;99.90;;;;;;5043145;28;19925;-68
2023/05/12 10:52:40;;;;;;;;;;;20.50;99.90;;;;;;5047019;28;20013;-67
2023/05/12 10:55:11;;;;;;;;;;;20.40;99.90;;;;;;5043168;28;19979;-68
2023/05/12 10:57:46;;;;;;;;;;;20.40;99.90;;;;;;5044903;28;20027;-67
2023/05/12 11:00:13;;;;;;;;;;;20.20;99.90;;;;;;5039249;28;19929;-68
2023/05/12 11:02:48;;;;;;;;;;;20.20;99.90;;;;;;5045810;28;20001;-68
2023/05/12 11:05:15;;;;;;;;;;;20.40;99.90;;;;;;5039660;28;20379;-68
2023/05/12 11:07:47;;;;;;;;;;;20.50;99.90;;;;;;5038181;28;19925;-68
2023/05/12 11:10:15;;;;;;;;;;;20.70;99.90;;;;;;5037776;28;19925;-70
2023/05/12 11:12:43;;;;;;;;;;;20.90;99.90;;;;;;5039120;28;20320;-70
2023/05/12 11:15:10;;;;;;;;;;;21.10;99.90;;;;;;5043564;28;19932;-68
2023/05/12 11:17:38;;;;;;;;;;;21.50;99.90;;;;;;5038894;28;19929;-68
2023/05/12 11:20:06;;;;;;;;;;;22.00;99.90;;;;;;5039935;28;19925;-67
2023/05/12 11:22:33;;;;;;;;;;;22.20;99.90;;;;;;5038183;28;20400;-70
2023/05/12 11:25:08;;;;;;;;;;;21.90;99.90;;;;;;5035993;28;19925;-67
2023/05/12 11:27:41;;;;;;;;;;;22.30;99.90;;;;;;5032901;28;20277;-67
2023/05/12 11:30:09;;;;;;;;;;;22.10;99.90;;;;;;5032861;28;20408;-68
2023/05/12 11:32:36;;;;;;;;;;;22.60;99.90;;;;;;5038585;28;19925;-68
2023/05/12 11:35:10;;;;;;;;;;;23.20;99.90;;;;;;5034623;28;19929;-70
2023/05/12 11:37:37;;;;;;;;;;;24.10;99.90;;;;;;5032759;28;20396;-68
2023/05/12 11:40:04;;;;;;;;;;;25.50;99.90;;;;;;5032983;28;19925;-66
2023/05/12 11:42:31;;;;;;;;;;;25.70;99.90;;;;;;5032888;28;19925;-68
2023/05/12 11:44:59;;;;;;;;;;;25.10;99.90;;;;;;5032956;28;19924;-69
2023/05/12 11:47:26;;;;;;;;;;;24.60;99.90;;;;;;5036121;28;19929;-68
2023/05/12 11:49:53;;;;;;;;;;;23.80;99.90;;;;;;5038113;28;19925;-68
2023/05/12 11:52:21;;;;;;;;;;;23.10;99.90;;;;;;5052559;28;20400;-67
2023/05/12 11:54:48;;;;;;;;;;;22.40;99.90;;;;;;5052368;28;20007;-68
2023/05/12 11:57:24;;;;;;;;;;;22.80;99.90;;;;;;5051997;28;20358;-68
2023/05/12 11:59:56;;;;;;;;;;;23.10;99.90;;;;;;5052440;28;20012;-67
2023/05/12 12:02:25;;;;;;;;;;;23.70;99.90;;;;;;5052111;28;19926;-68
2023/05/12 12:04:52;;;;;;;;;;;23.60;99.90;;;;;;5052102;28;19929;-68
2023/05/12 12:07:28;;;;;;;;;;;23.80;99.90;;;;;;5051806;28;19928;-67
2023/05/12 12:09:54;;;;;;;;;;;23.80;99.90;;;;;;5052196;28;19933;-68
2023/05/12 12:12:21;;;;;;;;;;;23.40;99.90;;;;;;5033265;28;19929;-68
2023/05/12 12:14:48;;;;;;;;;;;23.00;99.90;;;;;;5032264;28;19975;-68
2023/05/12 12:17:15;;;;;;;;;;;22.60;99.90;;;;;;5040427;28;19929;-68
2023/05/12 12:19:43;;;;;;;;;;;22.30;99.90;;;;;;5047994;28;20343;-68
2023/05/12 12:22:10;;;;;;;;;;;22.10;99.90;;;;;;5052057;28;19971;-68
2023/05/12 12:24:37;;;;;;;;;;;22.00;99.90;;;;;;5051441;28;19924;-68
2023/05/12 12:27:04;;;;;;;;;;;21.70;99.90;;;;;;5061511;28;20280;-68
2023/05/12 12:29:31;;;;;;;;;;;21.60;99.90;;;;;;5049048;28;20003;-68
2023/05/12 12:31:58;;;;;;;;;;;21.60;99.90;;;;;;5037508;28;19944;-68
2023/05/12 12:34:25;;;;;;;;;;;21.70;99.90;;;;;;5042754;28;19925;-68
2023/05/12 12:36:53;;;;;;;;;;;22.40;99.90;;;;;;5044179;28;20315;-69
2023/05/12 12:39:20;;;;;;;;;;;23.00;99.90;;;;;;5055232;28;20019;-69
2023/05/12 12:41:47;;;;;;;;;;;23.70;99.90;;;;;;5047835;28;19925;-69
2023/05/12 12:44:15;;;;;;;;;;;24.60;99.90;;;;;;5039110;28;19924;-66
2023/05/12 12:46:41;;;;;;;;;;;25.30;99.90;;;;;;5040068;28;19936;-69
2023/05/12 12:49:08;;;;;;;;;;;25.20;99.90;;;;;;5046230;28;19933;-68
2023/05/12 12:51:36;;;;;;;;;;;25.30;99.90;;;;;;5038785;28;19940;-70
2023/05/12 12:54:04;;;;;;;;;;;25.50;99.90;;;;;;5031200;28;19925;-68
2023/05/12 12:56:31;;;;;;;;;;;25.50;99.90;;;;;;5040439;28;19932;-69
2023/05/12 12:58:58;;;;;;;;;;;26.50;99.90;;;;;;5037607;28;19925;-70
2023/05/12 13:01:25;;;;;;;;;;;26.90;99.90;;;;;;5047491;28;19925;-68
2023/05/12 13:03:51;;;;;;;;;;;27.10;99.90;;;;;;5035259;28;19960;-70
2023/05/12 13:06:18;;;;;;;;;;;27.50;99.90;;;;;;5042647;28;19932;-70
2023/05/12 13:08:46;;;;;;;;;;;27.60;99.90;;;;;;5042118;28;19932;-68
2023/05/12 13:11:15;;;;;;;;;;;27.10;99.90;;;;;;5045793;28;19996;-68
2023/05/12 13:13:42;;;;;;;;;;;26.70;99.90;;;;;;5047561;28;19929;-68
2023/05/12 13:16:08;;;;;;;;;;;27.00;99.90;;;;;;5039239;28;19925;-69
2023/05/12 13:18:36;;;;;;;;;;;27.40;99.90;;;;;;5040264;28;19929;-67
2023/05/12 13:21:03;;;;;;;;;;;26.90;99.90;;;;;;5045007;28;19924;-68
2023/05/12 13:23:29;;;;;;;;;;;26.70;99.90;;;;;;5033855;28;19925;-69
2023/05/12 13:25:57;;;;;;;;;;;27.10;99.90;;;;;;5045674;28;19925;-69
2023/05/12 13:28:24;;;;;;;;;;;;;;;;;;5039325;28;20024;-68
2023/05/12 13:30:53;;;;;;;;;;;26.50;99.90;;;;;;5043077;28;20451;-69
2023/05/12 13:33:21;;;;;;;;;;;26.10;99.90;;;;;;5049687;28;20437;-69
2023/05/12 13:35:48;;;;;;;;;;;26.00;99.90;;;;;;5034028;28;19925;-66
2023/05/12 13:38:16;;;;;;;;;;;26.00;99.90;;;;;;5041775;28;19929;-68
2023/05/12 13:40:43;;;;;;;;;;;26.10;99.90;;;;;;5041801;28;19931;-68
2023/05/12 13:43:09;;;;;;;;;;;26.40;99.90;;;;;;5035471;28;20355;-68
2023/05/12 13:45:36;;;;;;;;;;;26.30;99.90;;;;;;5048814;28;19933;-69
2023/05/12 13:48:05;;;;;;;;;;;26.10;99.90;;;;;;5030931;28;19925;-68
2023/05/12 13:50:32;;;;;;;;;;;25.40;99.90;;;;;;5030499;28;19929;-68
2023/05/12 13:52:58;;;;;;;;;;;24.80;99.90;;;;;;5034478;28;19928;-68
2023/05/12 13:55:25;;;;;;;;;;;23.70;99.90;;;;;;5049196;28;19933;-67
2023/05/12 13:57:52;;;;;;;;;;;22.90;99.90;;;;;;5049212;28;19929;-68
2023/05/12 14:00:19;;;;;;;;;;;22.50;99.90;;;;;;5047370;28;19924;-66
2023/05/12 14:02:46;;;;;;;;;;;22.50;99.90;;;;;;5044966;28;19926;-68
2023/05/12 14:05:14;;;;;;;;;;;22.70;99.90;;;;;;5040149;28;19947;-68
2023/05/12 14:07:42;;;;;;;;;;;23.00;99.90;;;;;;5040051;28;19925;-69
2023/05/12 14:10:09;;;;;;;;;;;23.40;99.90;;;;;;5040432;28;19924;-68
2023/05/12 14:12:36;;;;;;;;;;;23.10;99.90;;;;;;5044694;28;19925;-70
2023/05/12 14:15:03;;;;;;;;;;;23.10;99.90;;;;;;5042272;28;19924;-67
2023/05/12 14:17:30;;;;;;;;;;;23.10;99.90;;;;;;5042598;28;19925;-68
2023/05/12 14:19:57;;;;;;;;;;;23.70;99.90;;;;;;5040472;28;19925;-66
2023/05/12 14:22:25;;;;;;;;;;;24.30;99.90;;;;;;5048320;28;19924;-68